KBYI/BYI METAR and TAF weather

Enter ICAO airport designator
Station Type Date Time Source
KBYI METAR 2022/06/26 06:53 UTC NOAA

KBYI 260653Z AUTO 35006KT 10SM CLR 14/06 A3024 RMK AO2 SLP206 T01390056 402720094


Station Type Date Time Source
KBYI Decoded METAR 2022/06/26 06:53 UTC NOAA

BURLEY MUNICIPAL AIRPORT, ID, United States (KBYI) 42-33N 113-46W 1264M
Jun 26, 2022 - 02:53 AM EDT / 2022.06.26 0653 UTC
Wind: from the N (350 degrees) at 7 MPH (6 KT):0
Visibility: 10 mile(s):0
Sky conditions: clear
Temperature: 57.0 F (13.9 C)
Dew Point: 42.1 F (5.6 C)
Relative Humidity: 57%
Pressure (altimeter): 30.24 in. Hg (1024 hPa)
ob: KBYI 260653Z AUTO 35006KT 10SM CLR 14/06 A3024 RMK AO2 SLP206 T01390056 402720094
cycle: 7

Station Type Date Time Source
KBYI TAF 2022/06/26 06:22 UTC NOAA

TAF KBYI 260520Z 2606/2706 08007KT P6SM SKC
FM262100 VRB06KT P6SM FEW030

Example: see airport list